createdAt,value
2023-03-25T00:01:17.711Z,2.9
2023-03-25T00:03:15.478Z,2.9
2023-03-25T00:05:17.599Z,2.9
2023-03-25T00:07:15.298Z,2.9
2023-03-25T00:09:15.284Z,2.9
2023-03-25T00:11:15.198Z,2.9
2023-03-25T00:13:15.256Z,2.9
2023-03-25T00:15:15.214Z,2.9
2023-03-25T00:17:15.136Z,2.9
2023-03-25T00:19:15.187Z,2.9
2023-03-25T00:21:15.438Z,2.9
2023-03-25T00:23:15.096Z,3
2023-03-25T00:25:15.583Z,3.1
2023-03-25T00:27:15.399Z,3.1
2023-03-25T00:29:15.673Z,3.1
2023-03-25T00:31:15.163Z,3.1
2023-03-25T00:33:15.115Z,3.2
2023-03-25T00:35:15.166Z,3.2
2023-03-25T00:37:15.789Z,3.2
2023-03-25T00:39:14.720Z,3.2
2023-03-25T00:41:16.591Z,3.2
2023-03-25T00:43:14.899Z,3.1
2023-03-25T00:45:14.830Z,3.1
2023-03-25T00:47:14.650Z,3.1
2023-03-25T00:49:14.700Z,3.1
2023-03-25T00:51:14.625Z,3.1
2023-03-25T00:53:14.510Z,3.1
2023-03-25T00:55:14.901Z,3.1
2023-03-25T00:57:14.502Z,3.1
2023-03-25T00:59:14.460Z,3.1
2023-03-25T01:01:16.902Z,3.2
2023-03-25T01:03:14.437Z,3.2
2023-03-25T01:05:14.354Z,3.2
2023-03-25T01:07:14.522Z,3.2
2023-03-25T01:09:15.137Z,3.3
2023-03-25T01:11:18.696Z,3.3
2023-03-25T01:13:14.258Z,3.4
2023-03-25T01:15:14.514Z,3.4
2023-03-25T01:17:14.251Z,3.4
2023-03-25T01:19:14.465Z,3.4
2023-03-25T01:21:14.655Z,3.4
2023-03-25T01:23:14.182Z,3.5
2023-03-25T01:25:14.175Z,3.5
2023-03-25T01:27:14.081Z,3.5
2023-03-25T01:29:15.879Z,3.5
2023-03-25T01:31:14.862Z,3.5
2023-03-25T01:33:14.059Z,3.4
2023-03-25T01:35:14.221Z,3.4
2023-03-25T01:37:14.046Z,3.4
2023-03-25T01:39:15.661Z,3.4
2023-03-25T01:41:14.061Z,3.4
2023-03-25T01:43:14.057Z,3.4
2023-03-25T01:45:20.053Z,3.4
2023-03-25T01:47:14.382Z,3.4
2023-03-25T01:49:18.075Z,3.4
2023-03-25T01:51:18.014Z,3.3
2023-03-25T01:53:13.982Z,3.3
2023-03-25T01:55:15.197Z,3.3
2023-03-25T01:57:18.183Z,3.3
2023-03-25T01:59:16.478Z,3.3
2023-03-25T02:01:16.492Z,3.3
2023-03-25T02:03:15.304Z,3.4
2023-03-25T02:05:19.398Z,3.5
2023-03-25T02:07:14.007Z,3.4
2023-03-25T02:09:17.492Z,3.4
2023-03-25T02:11:13.882Z,3.4
2023-03-25T02:13:15.080Z,3.4
2023-03-25T02:15:16.750Z,3.4
2023-03-25T02:17:24.705Z,3.5
2023-03-25T02:19:44.017Z,3.5
2023-03-25T02:21:40.305Z,3.5
2023-03-25T02:23:34.658Z,3.5
2023-03-25T02:25:29.135Z,3.5
2023-03-25T02:27:36.519Z,3.5
2023-03-25T02:29:24.726Z,3.5
2023-03-25T02:31:32.517Z,3.5
2023-03-25T02:33:32.637Z,3.5
2023-03-25T02:35:25.861Z,3.6
2023-03-25T02:37:36.200Z,3.6
2023-03-25T02:39:20.969Z,3.6
2023-03-25T02:41:21.806Z,3.6
2023-03-25T02:43:20.880Z,3.6
2023-03-25T02:45:18.353Z,3.6
2023-03-25T02:47:18.394Z,3.6
2023-03-25T02:49:18.252Z,3.6
2023-03-25T02:51:21.289Z,3.6
2023-03-25T02:53:17.065Z,3.5
2023-03-25T02:55:16.650Z,3.5
2023-03-25T02:57:17.763Z,3.5
2023-03-25T02:59:14.984Z,3.5
2023-03-25T03:01:13.268Z,3.5
2023-03-25T03:03:13.607Z,3.6
2023-03-25T03:05:23.778Z,3.6
2023-03-25T03:07:22.107Z,3.6
2023-03-25T03:09:23.923Z,3.6
2023-03-25T03:11:17.524Z,3.6
2023-03-25T03:13:21.043Z,3.5
2023-03-25T03:15:25.090Z,3.5
2023-03-25T03:17:21.115Z,3.5
2023-03-25T03:19:25.367Z,3.5
2023-03-25T03:21:17.512Z,3.5
2023-03-25T03:23:22.250Z,3.6
2023-03-25T03:25:22.142Z,3.6
2023-03-25T03:27:18.707Z,3.6
2023-03-25T03:29:16.699Z,3.6
2023-03-25T03:31:48.733Z,3.6
2023-03-25T03:33:19.179Z,3.7
2023-03-25T03:35:18.024Z,3.7
2023-03-25T03:37:17.819Z,3.7
2023-03-25T03:39:19.690Z,3.7
2023-03-25T03:41:18.018Z,3.7
2023-03-25T03:43:16.839Z,3.7
2023-03-25T03:45:18.256Z,3.8
2023-03-25T03:47:17.544Z,3.8
2023-03-25T03:49:16.843Z,3.8
2023-03-25T03:51:17.994Z,4
2023-03-25T03:53:17.901Z,4
2023-03-25T03:55:20.069Z,4.1
2023-03-25T03:57:19.941Z,4.1
2023-03-25T03:59:20.312Z,4.2
2023-03-25T04:01:18.727Z,4.2
2023-03-25T04:03:19.216Z,4.4
2023-03-25T04:05:17.391Z,4.6
2023-03-25T04:07:16.531Z,4.8
2023-03-25T04:09:20.260Z,5
2023-03-25T04:11:20.576Z,5.1
2023-03-25T04:13:15.618Z,5.1
2023-03-25T04:15:14.407Z,5.1
2023-03-25T04:17:13.192Z,5.3
2023-03-25T04:19:13.226Z,5.3
2023-03-25T04:21:13.502Z,5.3
2023-03-25T04:23:13.307Z,5.2
2023-03-25T04:25:13.524Z,5.2
2023-03-25T04:27:13.334Z,5.2
2023-03-25T04:29:13.303Z,5.2
2023-03-25T04:31:15.242Z,5.2
2023-03-25T04:33:13.796Z,5.4
2023-03-25T04:35:13.598Z,5.4
2023-03-25T04:37:13.729Z,5.4
2023-03-25T04:39:13.555Z,5.4
2023-03-25T04:41:13.639Z,5.5
2023-03-25T04:43:14.466Z,5.5
2023-03-25T04:45:14.739Z,5.5
2023-03-25T04:47:17.258Z,5.5
2023-03-25T04:49:18.830Z,5.5
2023-03-25T04:51:14.631Z,5.5
2023-03-25T04:53:13.752Z,5.5
2023-03-25T04:55:14.056Z,5.5
2023-03-25T04:57:13.934Z,5.5
2023-03-25T04:59:13.909Z,5.6
2023-03-25T05:01:21.766Z,5.6
2023-03-25T05:03:13.995Z,5.7
2023-03-25T05:05:15.657Z,5.7
2023-03-25T05:07:14.200Z,5.7
2023-03-25T05:09:16.103Z,5.7
2023-03-25T05:11:14.092Z,5.7
2023-03-25T05:13:14.435Z,5.8
2023-03-25T05:15:14.670Z,5.8
2023-03-25T05:17:14.282Z,5.8
2023-03-25T05:19:15.287Z,5.8
2023-03-25T05:21:14.604Z,5.8
2023-03-25T05:23:14.537Z,5.9
2023-03-25T05:25:14.485Z,5.9
2023-03-25T05:27:14.588Z,6
2023-03-25T05:29:15.153Z,6
2023-03-25T05:31:14.602Z,6
2023-03-25T05:33:16.455Z,5.9
2023-03-25T05:35:14.790Z,5.9
2023-03-25T05:37:14.962Z,5.9
2023-03-25T05:39:14.862Z,5.9
2023-03-25T05:41:15.130Z,5.9
2023-03-25T05:43:15.919Z,6.1
2023-03-25T05:45:15.605Z,6.1
2023-03-25T05:47:15.159Z,6.1
2023-03-25T05:49:15.138Z,6.1
2023-03-25T05:51:17.473Z,6.1
2023-03-25T05:53:15.424Z,6
2023-03-25T05:55:20.558Z,6
2023-03-25T05:57:15.757Z,6.1
2023-03-25T05:59:15.804Z,6.1
2023-03-25T06:01:31.934Z,6.1
2023-03-25T06:03:17.238Z,6
2023-03-25T06:05:16.630Z,6
2023-03-25T06:07:16.457Z,6
2023-03-25T06:09:15.834Z,6
2023-03-25T06:11:16.928Z,6
2023-03-25T06:13:16.392Z,6.1
2023-03-25T06:15:17.250Z,6.1
2023-03-25T06:17:16.432Z,6.4
2023-03-25T06:19:16.056Z,6.5
2023-03-25T06:21:17.775Z,6.6
2023-03-25T06:23:16.129Z,6.6
2023-03-25T06:25:18.721Z,6.6
2023-03-25T06:27:17.498Z,6.6
2023-03-25T06:29:16.403Z,6.6
2023-03-25T06:31:18.652Z,6.6
2023-03-25T06:33:16.653Z,6.7
2023-03-25T06:35:17.739Z,6.7
2023-03-25T06:37:16.911Z,6.7
2023-03-25T06:39:16.947Z,6.7
2023-03-25T06:41:18.522Z,6.6
2023-03-25T06:43:33.349Z,6.6
2023-03-25T06:45:24.538Z,6.6
2023-03-25T06:47:19.214Z,6.7
2023-03-25T06:49:17.305Z,6.6
2023-03-25T06:51:17.326Z,6.6
2023-03-25T06:53:17.588Z,6.5
2023-03-25T06:55:17.376Z,6.5
2023-03-25T06:57:17.542Z,6.4
2023-03-25T06:59:17.937Z,6.5
2023-03-25T07:01:17.612Z,6.5
2023-03-25T07:03:17.640Z,6.5
2023-03-25T07:05:18.124Z,6.5
2023-03-25T07:07:17.855Z,6.5
2023-03-25T07:09:17.847Z,6.5
2023-03-25T07:11:23.315Z,6.5
2023-03-25T07:13:18.104Z,6.6
2023-03-25T07:15:19.968Z,6.4
2023-03-25T07:17:18.282Z,6.4
2023-03-25T07:19:18.164Z,6.4
2023-03-25T07:21:18.686Z,6.4
2023-03-25T07:23:18.863Z,6.5
2023-03-25T07:25:18.436Z,6.5
2023-03-25T07:27:25.119Z,6.5
2023-03-25T07:29:18.730Z,6.5
2023-03-25T07:31:18.607Z,6.3
2023-03-25T07:33:18.709Z,6.3
2023-03-25T07:35:18.873Z,6.3
2023-03-25T07:37:18.833Z,6.2
2023-03-25T07:39:18.935Z,6.2
2023-03-25T07:41:35.842Z,6.2
2023-03-25T07:43:28.196Z,6.2
2023-03-25T07:45:19.385Z,6.2
2023-03-25T07:47:19.196Z,6.2
2023-03-25T07:49:19.308Z,6.2
2023-03-25T07:51:19.290Z,6.2
2023-03-25T07:53:19.686Z,6.3
2023-03-25T07:55:19.517Z,6.3
2023-03-25T07:57:19.448Z,6.3
2023-03-25T07:59:19.629Z,6.3
2023-03-25T08:01:19.659Z,6.3
2023-03-25T08:03:19.693Z,6.4
2023-03-25T08:05:19.749Z,6.4
2023-03-25T08:07:19.819Z,6.4
2023-03-25T08:09:19.852Z,6.4
2023-03-25T08:11:19.934Z,6.3
2023-03-25T08:13:20.001Z,6.5
2023-03-25T08:15:20.507Z,6.5
2023-03-25T08:17:20.055Z,6.5
2023-03-25T08:19:20.124Z,6.5
2023-03-25T08:21:20.544Z,6.5
2023-03-25T08:23:20.951Z,6.5
2023-03-25T08:25:20.624Z,6.5
2023-03-25T08:27:20.404Z,6.5
2023-03-25T08:29:20.492Z,6.5
2023-03-25T08:31:20.792Z,6.4
2023-03-25T08:33:21.474Z,6.4
2023-03-25T08:35:21.702Z,6.5
2023-03-25T08:37:21.014Z,6.5
2023-03-25T08:39:20.941Z,6.7
2023-03-25T08:41:20.995Z,6.8
2023-03-25T08:43:21.019Z,6.9
2023-03-25T08:45:21.003Z,7
2023-03-25T08:47:21.466Z,7.1
2023-03-25T08:49:21.140Z,7
2023-03-25T08:51:21.843Z,7
2023-03-25T08:53:21.294Z,7
2023-03-25T08:55:21.582Z,7
2023-03-25T08:57:21.580Z,7
2023-03-25T08:59:21.683Z,7
2023-03-25T09:01:21.618Z,7.2
2023-03-25T09:03:22.529Z,7.4
2023-03-25T09:05:21.838Z,7.4
2023-03-25T09:07:21.998Z,7.5
2023-03-25T09:09:22.089Z,7.4
2023-03-25T09:11:34.092Z,7.4
2023-03-25T09:13:22.270Z,7.3
2023-03-25T09:15:22.732Z,7.3
2023-03-25T09:17:23.014Z,7.3
2023-03-25T09:19:22.733Z,7.4
2023-03-25T09:21:22.754Z,7.5
2023-03-25T09:23:22.764Z,7.7
2023-03-25T09:25:22.911Z,7.7
2023-03-25T09:27:23.406Z,7.7
2023-03-25T09:29:23.157Z,7.7
2023-03-25T09:31:23.396Z,7.6
2023-03-25T09:33:23.401Z,7.7
2023-03-25T09:35:23.482Z,7.8
2023-03-25T09:37:23.836Z,8.2
2023-03-25T09:39:24.097Z,8.3
2023-03-25T09:41:45.771Z,8.1
2023-03-25T09:43:31.248Z,8
2023-03-25T09:45:32.174Z,8.1
2023-03-25T09:47:26.107Z,8.1
2023-03-25T09:49:35.762Z,7.8
2023-03-25T09:51:28.740Z,7.6
2023-03-25T09:53:31.506Z,7.4
2023-03-25T09:55:28.079Z,7.4
2023-03-25T09:57:29.888Z,7.4
2023-03-25T09:59:39.161Z,7.6
2023-03-25T10:01:36.891Z,7.7
2023-03-25T10:03:31.873Z,7.8
2023-03-25T10:05:46.095Z,7.8
2023-03-25T10:07:39.376Z,7.8
2023-03-25T10:09:38.731Z,7.8
2023-03-25T10:11:33.788Z,8
2023-03-25T10:13:37.325Z,8
2023-03-25T10:15:33.629Z,8.1
2023-03-25T10:17:36.312Z,8.3
2023-03-25T10:19:41.022Z,8.1
2023-03-25T10:21:36.672Z,8
2023-03-25T10:23:34.106Z,8
2023-03-25T10:25:30.290Z,8.2
2023-03-25T10:27:33.663Z,8.2
2023-03-25T10:29:32.394Z,8.2
2023-03-25T10:31:28.984Z,8
2023-03-25T10:33:33.460Z,7.9
2023-03-25T10:35:29.578Z,7.9
2023-03-25T10:37:32.281Z,8
2023-03-25T10:39:31.420Z,8
2023-03-25T10:41:33.694Z,7.9
2023-03-25T10:43:30.306Z,7.8
2023-03-25T10:45:28.558Z,7.6
2023-03-25T10:47:34.066Z,7.6
2023-03-25T10:49:30.396Z,7.9
2023-03-25T10:51:31.409Z,8
2023-03-25T10:53:29.645Z,8
2023-03-25T10:55:33.222Z,8
2023-03-25T10:57:30.232Z,8
2023-03-25T10:59:33.444Z,8.1
2023-03-25T11:01:36.087Z,8.1
2023-03-25T11:03:33.472Z,8.2
2023-03-25T11:05:29.518Z,8.2
2023-03-25T11:07:34.872Z,8.4
2023-03-25T11:09:30.921Z,8.5
2023-03-25T11:11:32.551Z,8.4
2023-03-25T11:13:30.460Z,8.6
2023-03-25T11:15:33.275Z,9
2023-03-25T11:17:31.670Z,9
2023-03-25T11:19:36.138Z,9
2023-03-25T11:21:33.000Z,8.9
2023-03-25T11:23:33.239Z,8.9
2023-03-25T11:25:35.558Z,8.7
2023-03-25T11:27:39.558Z,8.7
2023-03-25T11:29:31.191Z,8.7
2023-03-25T11:31:35.257Z,8.8
2023-03-25T11:33:31.443Z,8.8
2023-03-25T11:35:36.195Z,8.5
2023-03-25T11:37:42.262Z,8.5
2023-03-25T11:39:35.392Z,8.4
2023-03-25T11:41:34.461Z,8.4
2023-03-25T11:43:36.275Z,8.4
2023-03-25T11:45:35.796Z,8.5
2023-03-25T11:47:35.106Z,8.7
2023-03-25T11:49:36.020Z,8.7
2023-03-25T11:51:33.128Z,8.3
2023-03-25T11:53:33.336Z,8.5
2023-03-25T11:55:44.444Z,8.5
2023-03-25T11:57:39.155Z,8.5
2023-03-25T11:59:38.135Z,8.4
2023-03-25T12:01:40.267Z,8.3
2023-03-25T12:03:34.560Z,8.3
2023-03-25T12:05:34.162Z,8.3
2023-03-25T12:07:41.314Z,8.3
2023-03-25T12:09:34.964Z,8.1
2023-03-25T12:11:43.392Z,8.3
2023-03-25T12:13:49.755Z,8.4
2023-03-25T12:15:41.735Z,8.4
2023-03-25T12:17:48.678Z,8.4
2023-03-25T12:19:47.202Z,8.4
2023-03-25T12:21:51.781Z,8.5
2023-03-25T12:23:43.886Z,8.5
2023-03-25T12:25:48.558Z,9
2023-03-25T12:27:50.333Z,9.3
2023-03-25T12:29:43.919Z,9.3
2023-03-25T12:31:47.420Z,9.2
2023-03-25T12:33:49.353Z,9.2
2023-03-25T12:35:42.983Z,8.9
2023-03-25T12:37:47.685Z,8.7
2023-03-25T12:39:49.148Z,8.9
2023-03-25T12:41:42.172Z,8.9
2023-03-25T12:43:46.806Z,8.8
2023-03-25T12:45:53.511Z,8.6
2023-03-25T12:47:41.341Z,8.6
2023-03-25T12:49:59.833Z,8.6
2023-03-25T12:51:48.120Z,8.6
2023-03-25T12:53:49.859Z,8.6
2023-03-25T12:55:51.648Z,8.7
2023-03-25T12:57:52.580Z,8.7
2023-03-25T12:59:58.594Z,8.7
2023-03-25T13:01:50.313Z,8.6
2023-03-25T13:03:52.070Z,8.6
2023-03-25T13:05:45.107Z,8.6
2023-03-25T13:07:44.231Z,8.9
2023-03-25T13:09:50.315Z,8.9
2023-03-25T13:11:45.815Z,8.9
2023-03-25T13:13:41.410Z,8.9
2023-03-25T13:15:43.277Z,8.9
2023-03-25T13:17:44.715Z,8.9
2023-03-25T13:19:41.345Z,9
2023-03-25T13:21:43.423Z,9
2023-03-25T13:23:41.887Z,9
2023-03-25T13:25:47.978Z,9
2023-03-25T13:27:41.080Z,8.9
2023-03-25T13:29:43.934Z,9
2023-03-25T13:31:43.026Z,8.8
2023-03-25T13:33:46.132Z,8.8
2023-03-25T13:35:46.747Z,8.8
2023-03-25T13:37:47.667Z,8.8
2023-03-25T13:39:54.047Z,8.9
2023-03-25T13:41:43.725Z,8.8
2023-03-25T13:43:53.898Z,8.8
2023-03-25T13:45:48.475Z,8.8
2023-03-25T13:47:48.210Z,8.7
2023-03-25T13:49:48.349Z,8.9
2023-03-25T13:51:42.374Z,8.8
2023-03-25T13:53:46.943Z,8.8
2023-03-25T13:55:48.457Z,8.8
2023-03-25T13:58:05.337Z,8.8
2023-03-25T14:00:16.621Z,8.8
2023-03-25T14:01:56.422Z,8.7
2023-03-25T14:04:07.931Z,8.7
2023-03-25T14:06:01.530Z,8.8
2023-03-25T14:08:01.323Z,8.9
2023-03-25T14:09:59.732Z,8.9
2023-03-25T14:11:46.875Z,8.9
2023-03-25T14:13:46.721Z,8.9
2023-03-25T14:15:52.842Z,8.8
2023-03-25T14:17:45.355Z,8.8
2023-03-25T14:19:50.291Z,8.6
2023-03-25T14:21:48.322Z,8.6
2023-03-25T14:23:44.829Z,8.5
2023-03-25T14:25:48.188Z,8.5
2023-03-25T14:27:48.531Z,8.5
2023-03-25T14:29:52.812Z,8.5
2023-03-25T14:32:00.496Z,8.5
2023-03-25T14:34:14.482Z,8.5
2023-03-25T14:35:49.425Z,8.5
2023-03-25T14:37:45.647Z,8.5
2023-03-25T14:39:45.739Z,8.5
2023-03-25T14:42:01.022Z,8.2
2023-03-25T14:44:06.813Z,8.2
2023-03-25T14:46:03.755Z,8.4
2023-03-25T14:47:52.400Z,8.4
2023-03-25T14:49:49.192Z,8.4
2023-03-25T14:51:50.134Z,8.2
2023-03-25T14:53:54.015Z,8.2
2023-03-25T14:55:47.315Z,8.1
2023-03-25T14:57:48.561Z,8
2023-03-25T14:59:50.402Z,8
2023-03-25T15:01:47.817Z,8
2023-03-25T15:03:47.338Z,8
2023-03-25T15:05:54.593Z,8.1
2023-03-25T15:07:50.893Z,8
2023-03-25T15:09:52.107Z,8
2023-03-25T15:11:55.074Z,7.9
2023-03-25T15:13:50.102Z,7.9
2023-03-25T15:15:59.216Z,7.9
2023-03-25T15:17:48.127Z,7.8
2023-03-25T15:20:17.467Z,7.8
2023-03-25T15:22:05.379Z,7.7
2023-03-25T15:23:50.983Z,7.7
2023-03-25T15:25:52.319Z,7.6
2023-03-25T15:28:02.082Z,7.6
2023-03-25T15:30:01.760Z,7.6
2023-03-25T15:32:01.919Z,7.6
2023-03-25T15:34:08.463Z,7.6
2023-03-25T15:36:04.123Z,7.4
2023-03-25T15:38:18.236Z,7.4
2023-03-25T15:40:04.268Z,7.4
2023-03-25T15:42:16.051Z,7.4
2023-03-25T15:44:09.333Z,7.4
2023-03-25T15:46:04.786Z,7.4
2023-03-25T15:48:13.648Z,7.4
2023-03-25T15:50:08.316Z,7.4
2023-03-25T15:52:03.509Z,7.3
2023-03-25T15:54:02.724Z,7.3
2023-03-25T15:55:54.529Z,7.3
2023-03-25T15:57:55.454Z,7.3
2023-03-25T15:59:59.469Z,7.3
2023-03-25T16:01:51.912Z,7.2
2023-03-25T16:03:58.689Z,7.2
2023-03-25T16:05:54.306Z,7.1
2023-03-25T16:07:51.058Z,7.1
2023-03-25T16:09:50.929Z,7.1
2023-03-25T16:11:51.824Z,7.2
2023-03-25T16:14:03.106Z,7.2
2023-03-25T16:15:53.817Z,7.2
2023-03-25T16:17:52.087Z,7.2
2023-03-25T16:19:52.739Z,7.2
2023-03-25T16:21:52.949Z,7.1
2023-03-25T16:23:53.884Z,7.1
2023-03-25T16:25:51.315Z,7.1
2023-03-25T16:27:54.885Z,7.1
2023-03-25T16:29:53.186Z,7.1
2023-03-25T16:31:55.340Z,7
2023-03-25T16:33:58.376Z,7
2023-03-25T16:35:57.339Z,7
2023-03-25T16:37:55.479Z,7
2023-03-25T16:39:53.960Z,7
2023-03-25T16:42:00.495Z,6.9
2023-03-25T16:43:52.495Z,6.9
2023-03-25T16:45:57.038Z,6.9
2023-03-25T16:47:54.328Z,6.9
2023-03-25T16:49:55.203Z,6.9
2023-03-25T16:51:54.269Z,6.8
2023-03-25T16:53:54.458Z,6.8
2023-03-25T16:56:02.358Z,6.8
2023-03-25T16:57:53.079Z,6.8
2023-03-25T16:59:54.486Z,6.8
2023-03-25T17:01:56.039Z,6.8
2023-03-25T17:04:07.645Z,6.8
2023-03-25T17:05:59.076Z,6.8
2023-03-25T17:07:58.729Z,6.9
2023-03-25T17:09:56.921Z,6.9
2023-03-25T17:11:56.162Z,6.9
2023-03-25T17:13:59.418Z,6.9
2023-03-25T17:15:54.299Z,6.9
2023-03-25T17:17:58.283Z,6.9
2023-03-25T17:19:54.590Z,6.9
2023-03-25T17:22:05.506Z,6.9
2023-03-25T17:23:56.406Z,6.9
2023-03-25T17:25:57.523Z,6.8
2023-03-25T17:27:55.365Z,6.8
2023-03-25T17:29:57.613Z,6.9
2023-03-25T17:31:56.322Z,6.8
2023-03-25T17:34:00.134Z,6.8
2023-03-25T17:35:55.876Z,6.8
2023-03-25T17:37:56.888Z,6.8
2023-03-25T17:39:54.878Z,6.8
2023-03-25T17:41:58.936Z,6.9
2023-03-25T17:43:56.186Z,6.9
2023-03-25T17:45:55.283Z,6.9
2023-03-25T17:47:55.175Z,6.9
2023-03-25T17:49:55.218Z,6.9
2023-03-25T17:51:55.511Z,6.9
2023-03-25T17:53:55.875Z,6.9
2023-03-25T17:55:55.913Z,6.9
2023-03-25T17:57:55.912Z,6.9
2023-03-25T17:59:55.726Z,6.9
2023-03-25T18:01:55.714Z,6.8
2023-03-25T18:03:56.417Z,6.7
2023-03-25T18:05:56.013Z,6.8
2023-03-25T18:07:56.540Z,6.8
2023-03-25T18:09:56.102Z,6.8
2023-03-25T18:11:56.589Z,6.8
2023-03-25T18:13:56.350Z,6.8
2023-03-25T18:15:56.488Z,6.8
2023-03-25T18:17:56.696Z,6.8
2023-03-25T18:19:56.552Z,6.8
2023-03-25T18:21:58.852Z,6.8
2023-03-25T18:23:56.678Z,6.8
2023-03-25T18:25:56.995Z,6.8
2023-03-25T18:27:57.351Z,6.8
2023-03-25T18:29:56.945Z,6.8
2023-03-25T18:31:57.712Z,6.8
2023-03-25T18:33:57.131Z,6.7
2023-03-25T18:35:57.302Z,6.7
2023-03-25T18:37:57.533Z,6.7
2023-03-25T18:39:57.890Z,6.7
2023-03-25T18:41:57.429Z,6.8
2023-03-25T18:43:57.584Z,6.8
2023-03-25T18:45:57.719Z,6.7
2023-03-25T18:47:57.821Z,6.7
2023-03-25T18:49:57.936Z,6.7
2023-03-25T18:51:57.801Z,6.7
2023-03-25T18:53:57.974Z,6.7
2023-03-25T18:55:59.735Z,6.7
2023-03-25T18:57:59.059Z,6.7
2023-03-25T18:59:58.257Z,6.7
2023-03-25T19:01:58.394Z,6.7
2023-03-25T19:03:58.448Z,6.6
2023-03-25T19:05:59.755Z,6.7
2023-03-25T19:07:58.756Z,6.7
2023-03-25T19:09:58.626Z,6.7
2023-03-25T19:11:58.634Z,6.6
2023-03-25T19:13:59.027Z,6.6
2023-03-25T19:15:58.831Z,6.6
2023-03-25T19:17:59.056Z,6.6
2023-03-25T19:19:59.007Z,6.6
2023-03-25T19:21:59.016Z,6.5
2023-03-25T19:23:59.104Z,6.5
2023-03-25T19:25:59.155Z,6.5
2023-03-25T19:27:59.333Z,6.5
2023-03-25T19:29:59.307Z,6.5
2023-03-25T19:31:59.390Z,6.5
2023-03-25T19:33:59.429Z,6.5
2023-03-25T19:36:00.986Z,6.5
2023-03-25T19:37:59.805Z,6.5
2023-03-25T19:39:59.706Z,6.5
2023-03-25T19:41:59.727Z,6.4
2023-03-25T19:43:59.872Z,6.4
2023-03-25T19:46:00.902Z,6.4
2023-03-25T19:48:00.406Z,6.4
2023-03-25T19:50:00.174Z,6.4
2023-03-25T19:52:00.394Z,6.4
2023-03-25T19:54:00.267Z,6.4
2023-03-25T19:56:02.649Z,6.4
2023-03-25T19:58:00.851Z,6.4
2023-03-25T20:00:00.431Z,6.4
2023-03-25T20:02:00.569Z,6.4
2023-03-25T20:04:00.641Z,6.4
2023-03-25T20:06:02.090Z,6.4
2023-03-25T20:08:00.852Z,6.4
2023-03-25T20:10:16.720Z,6.4
2023-03-25T20:12:00.929Z,6.4
2023-03-25T20:14:00.882Z,6.4
2023-03-25T20:16:00.950Z,6.4
2023-03-25T20:18:01.038Z,6.4
2023-03-25T20:20:01.077Z,6.2
2023-03-25T20:22:01.121Z,6.2
2023-03-25T20:24:01.264Z,6.1
2023-03-25T20:26:01.314Z,6.1
2023-03-25T20:28:01.757Z,6
2023-03-25T20:30:01.547Z,6
2023-03-25T20:32:01.759Z,5.9
2023-03-25T20:34:01.637Z,5.8
2023-03-25T20:36:01.659Z,5.8
2023-03-25T20:38:01.743Z,5.8
2023-03-25T20:40:02.060Z,5.7
2023-03-25T20:42:02.083Z,5.6
2023-03-25T20:44:01.901Z,5.8
2023-03-25T20:46:01.913Z,5.7
2023-03-25T20:48:01.995Z,5.7
2023-03-25T20:50:02.196Z,5.5
2023-03-25T20:52:02.011Z,5.5
2023-03-25T20:54:02.178Z,5.5
2023-03-25T20:56:02.771Z,5.5
2023-03-25T20:58:02.588Z,5.4
2023-03-25T21:00:02.908Z,5.3
2023-03-25T21:02:02.390Z,5.1
2023-03-25T21:04:02.352Z,5.3
2023-03-25T21:06:10.368Z,5.2
2023-03-25T21:08:02.560Z,5.2
2023-03-25T21:10:03.668Z,5
2023-03-25T21:12:02.725Z,5
2023-03-25T21:14:03.081Z,5.1
2023-03-25T21:16:02.790Z,5.1
2023-03-25T21:18:02.758Z,5.1
2023-03-25T21:20:03.019Z,5.1
2023-03-25T21:22:03.189Z,5.2
2023-03-25T21:24:03.699Z,5.2
2023-03-25T21:26:04.477Z,5.2
2023-03-25T21:28:04.113Z,5.2
2023-03-25T21:30:03.342Z,5.2
2023-03-25T21:32:03.184Z,5.2
2023-03-25T21:34:03.052Z,5
2023-03-25T21:36:03.999Z,4.9
2023-03-25T21:38:03.563Z,4.7
2023-03-25T21:40:05.902Z,4.7
2023-03-25T21:42:10.505Z,4.8
2023-03-25T21:44:04.369Z,4.8
2023-03-25T21:46:05.426Z,4.8
2023-03-25T21:48:03.650Z,4.7
2023-03-25T21:50:05.122Z,4.7
2023-03-25T21:52:03.547Z,4.5
2023-03-25T21:54:03.693Z,4.6
2023-03-25T21:56:04.094Z,4.8
2023-03-25T21:58:03.431Z,4.9
2023-03-25T22:00:12.347Z,4.9
2023-03-25T22:02:03.661Z,4.8
2023-03-25T22:04:03.980Z,4.8
2023-03-25T22:06:04.769Z,4.8
2023-03-25T22:08:04.810Z,4.8
2023-03-25T22:10:04.752Z,4.5
2023-03-25T22:12:04.149Z,4.4
2023-03-25T22:14:04.457Z,4.4
2023-03-25T22:16:05.059Z,4.4
2023-03-25T22:18:04.041Z,4.6
2023-03-25T22:20:04.537Z,4.6
2023-03-25T22:22:03.826Z,4.7
2023-03-25T22:24:06.429Z,4.9
2023-03-25T22:26:04.398Z,4.8
2023-03-25T22:28:04.401Z,4.8
2023-03-25T22:30:06.817Z,4.8
2023-03-25T22:32:04.779Z,4.7
2023-03-25T22:34:04.988Z,4.7
2023-03-25T22:36:06.374Z,4.9
2023-03-25T22:38:04.593Z,4.9
2023-03-25T22:40:05.189Z,4.9
2023-03-25T22:42:04.570Z,4.8
2023-03-25T22:44:04.667Z,4.7
2023-03-25T22:46:06.050Z,4.7
2023-03-25T22:48:04.974Z,4.7
2023-03-25T22:50:05.311Z,4.7
2023-03-25T22:52:04.966Z,4.7
2023-03-25T22:54:04.890Z,4.6
2023-03-25T22:56:05.598Z,4.5
2023-03-25T22:58:04.680Z,4.5
2023-03-25T23:00:08.587Z,4.4
2023-03-25T23:02:04.812Z,4.3
2023-03-25T23:04:04.923Z,4.3
2023-03-25T23:06:07.316Z,4.3
2023-03-25T23:08:05.677Z,4.3
2023-03-25T23:10:05.808Z,4.3
2023-03-25T23:12:05.346Z,4.2
2023-03-25T23:14:08.395Z,4.2
2023-03-25T23:16:08.097Z,4.1
2023-03-25T23:18:05.150Z,4.1
2023-03-25T23:20:06.291Z,4.2
2023-03-25T23:22:05.337Z,4.2
2023-03-25T23:24:05.823Z,4.2
2023-03-25T23:26:07.378Z,4.2
2023-03-25T23:28:05.206Z,4.2
2023-03-25T23:30:06.924Z,4.1
2023-03-25T23:32:07.095Z,4.2
2023-03-25T23:34:07.502Z,4.2
2023-03-25T23:36:06.836Z,4.2
2023-03-25T23:38:05.432Z,4.2
2023-03-25T23:40:06.812Z,4.2
2023-03-25T23:42:05.881Z,4.3
2023-03-25T23:44:05.776Z,4.3
2023-03-25T23:46:07.509Z,4.1
2023-03-25T23:48:05.935Z,4.1
2023-03-25T23:50:06.718Z,4.1
2023-03-25T23:52:06.375Z,4
2023-03-25T23:54:07.789Z,4
2023-03-25T23:56:07.036Z,4
2023-03-25T23:58:05.786Z,4
